aviador You're here:

YCAS Decoded Metar

in
Report Time2017-11-23 22:00:00
UTC Time2017-11-23 22:22:28
Flight Rules unknown UNKNOWN
Wind220° at 04 kt
W.Decomp.*RWY 28: 2.0 kt HW 3.5 kt LCW
W.Rank220° ranks 26
Current wind is below 220° avg. (4.5)
VisibilityN/A
Phenomena:N/A
Clouds:N/A
Expected CloudBase > 1,600 ft AGL from Temp-Dew spread
CeilingNone
Temp22°C
Dew Point18°C (78% RH)
QNH1018 hPa
Raw Report
METAR YCAS 232200Z AUTO 22004KT //// // ////// 22/18 Q1018=

Extra information for YCAS:More info

Social comments